sensor_id;sensor_type;location;lat;lon;timestamp;pressure;altitude;pressure_sealevel;temperature
15709;BMP180;7954;51.914;8.420;2023-06-14T00:00:05;100285.31;;;26.34
15709;BMP180;7954;51.914;8.420;2023-06-14T00:02:34;100297.78;;;26.29
15709;BMP180;7954;51.914;8.420;2023-06-14T00:05:04;100298.22;;;26.25
15709;BMP180;7954;51.914;8.420;2023-06-14T00:07:38;100287.09;;;26.18
15709;BMP180;7954;51.914;8.420;2023-06-14T00:10:10;100291.34;;;26.17
15709;BMP180;7954;51.914;8.420;2023-06-14T00:12:38;100292.38;;;26.11
15709;BMP180;7954;51.914;8.420;2023-06-14T00:15:07;100296.00;;;26.04
15709;BMP180;7954;51.914;8.420;2023-06-14T00:17:37;100304.38;;;26.02
15709;BMP180;7954;51.914;8.420;2023-06-14T00:20:09;100299.66;;;25.98
15709;BMP180;7954;51.914;8.420;2023-06-14T00:22:37;100301.28;;;25.89
15709;BMP180;7954;51.914;8.420;2023-06-14T00:25:06;100310.25;;;25.84
15709;BMP180;7954;51.914;8.420;2023-06-14T00:27:55;100307.50;;;25.83
15709;BMP180;7954;51.914;8.420;2023-06-14T00:30:23;100307.63;;;25.76
15709;BMP180;7954;51.914;8.420;2023-06-14T00:32:52;100313.78;;;25.69
15709;BMP180;7954;51.914;8.420;2023-06-14T00:35:21;100316.03;;;25.66
15709;BMP180;7954;51.914;8.420;2023-06-14T00:37:50;100318.59;;;25.58
15709;BMP180;7954;51.914;8.420;2023-06-14T00:40:18;100315.50;;;25.53
15709;BMP180;7954;51.914;8.420;2023-06-14T00:42:46;100322.78;;;25.49
15709;BMP180;7954;51.914;8.420;2023-06-14T00:45:14;100320.16;;;25.40
15709;BMP180;7954;51.914;8.420;2023-06-14T00:47:42;100325.41;;;25.33
15709;BMP180;7954;51.914;8.420;2023-06-14T00:50:11;100327.84;;;25.32
15709;BMP180;7954;51.914;8.420;2023-06-14T00:52:41;100325.34;;;25.25
15709;BMP180;7954;51.914;8.420;2023-06-14T00:55:09;100325.63;;;25.20
15709;BMP180;7954;51.914;8.420;2023-06-14T00:57:37;100332.13;;;25.16
15709;BMP180;7954;51.914;8.420;2023-06-14T01:00:07;100320.22;;;25.10
15709;BMP180;7954;51.914;8.420;2023-06-14T01:02:37;100331.16;;;25.07
15709;BMP180;7954;51.914;8.420;2023-06-14T01:05:06;100328.59;;;25.00
15709;BMP180;7954;51.914;8.420;2023-06-14T01:07:46;100331.09;;;24.92
15709;BMP180;7954;51.914;8.420;2023-06-14T01:10:26;100333.69;;;24.92
15709;BMP180;7954;51.914;8.420;2023-06-14T01:13:07;100328.38;;;24.90
15709;BMP180;7954;51.914;8.420;2023-06-14T01:15:36;100330.44;;;24.86
15709;BMP180;7954;51.914;8.420;2023-06-14T01:18:05;100339.56;;;24.82
15709;BMP180;7954;51.914;8.420;2023-06-14T01:20:33;100339.19;;;24.79
15709;BMP180;7954;51.914;8.420;2023-06-14T01:23:06;100341.88;;;24.72
15709;BMP180;7954;51.914;8.420;2023-06-14T01:25:34;100344.28;;;24.71
15709;BMP180;7954;51.914;8.420;2023-06-14T01:28:05;100333.56;;;24.75
15709;BMP180;7954;51.914;8.420;2023-06-14T01:30:37;100337.63;;;24.73
15709;BMP180;7954;51.914;8.420;2023-06-14T01:33:05;100341.88;;;24.72
15709;BMP180;7954;51.914;8.420;2023-06-14T01:35:34;100344.84;;;24.68
15709;BMP180;7954;51.914;8.420;2023-06-14T01:38:03;100341.22;;;24.66
15709;BMP180;7954;51.914;8.420;2023-06-14T01:40:34;100330.94;;;24.60
15709;BMP180;7954;51.914;8.420;2023-06-14T01:43:03;100339.69;;;24.53
15709;BMP180;7954;51.914;8.420;2023-06-14T01:45:32;100346.19;;;24.50
15709;BMP180;7954;51.914;8.420;2023-06-14T01:48:01;100347.19;;;24.43
15709;BMP180;7954;51.914;8.420;2023-06-14T01:50:29;100354.19;;;24.37
15709;BMP180;7954;51.914;8.420;2023-06-14T01:52:58;100355.03;;;24.29
15709;BMP180;7954;51.914;8.420;2023-06-14T01:55:27;100359.50;;;24.23
15709;BMP180;7954;51.914;8.420;2023-06-14T01:57:56;100363.97;;;24.17
15709;BMP180;7954;51.914;8.420;2023-06-14T02:00:26;100357.81;;;24.08
15709;BMP180;7954;51.914;8.420;2023-06-14T02:02:53;100358.94;;;24.03
15709;BMP180;7954;51.914;8.420;2023-06-14T02:05:22;100355.84;;;23.99
15709;BMP180;7954;51.914;8.420;2023-06-14T02:07:50;100350.94;;;23.94
15709;BMP180;7954;51.914;8.420;2023-06-14T02:10:20;100352.97;;;23.89
15709;BMP180;7954;51.914;8.420;2023-06-14T02:12:48;100364.28;;;23.83
15709;BMP180;7954;51.914;8.420;2023-06-14T02:15:18;100362.50;;;23.75
15709;BMP180;7954;51.914;8.420;2023-06-14T02:17:46;100363.06;;;23.72
15709;BMP180;7954;51.914;8.420;2023-06-14T02:20:16;100357.50;;;23.69
15709;BMP180;7954;51.914;8.420;2023-06-14T02:22:44;100370.47;;;23.62
15709;BMP180;7954;51.914;8.420;2023-06-14T02:25:13;100367.03;;;23.55
15709;BMP180;7954;51.914;8.420;2023-06-14T02:27:42;100371.66;;;23.50
15709;BMP180;7954;51.914;8.420;2023-06-14T02:30:11;100366.56;;;23.43
15709;BMP180;7954;51.914;8.420;2023-06-14T02:32:41;100370.78;;;23.43
15709;BMP180;7954;51.914;8.420;2023-06-14T02:35:09;100367.16;;;23.34
15709;BMP180;7954;51.914;8.420;2023-06-14T02:37:37;100369.00;;;23.28
15709;BMP180;7954;51.914;8.420;2023-06-14T02:40:06;100365.91;;;23.24
15709;BMP180;7954;51.914;8.420;2023-06-14T02:42:35;100360.41;;;23.21
15709;BMP180;7954;51.914;8.420;2023-06-14T02:45:04;100371.50;;;23.13
15709;BMP180;7954;51.914;8.420;2023-06-14T02:47:32;100370.94;;;23.08
15709;BMP180;7954;51.914;8.420;2023-06-14T02:50:02;100367.84;;;23.04
15709;BMP180;7954;51.914;8.420;2023-06-14T02:52:30;100368.22;;;23.00
15709;BMP180;7954;51.914;8.420;2023-06-14T02:54:59;100368.41;;;22.94
15709;BMP180;7954;51.914;8.420;2023-06-14T02:57:28;100376.84;;;22.93
15709;BMP180;7954;51.914;8.420;2023-06-14T02:59:56;100365.09;;;22.88
15709;BMP180;7954;51.914;8.420;2023-06-14T03:02:24;100374.13;;;22.85
15709;BMP180;7954;51.914;8.420;2023-06-14T03:04:52;100377.47;;;22.77
15709;BMP180;7954;51.914;8.420;2023-06-14T03:07:22;100376.19;;;22.66
15709;BMP180;7954;51.914;8.420;2023-06-14T03:09:52;100374.19;;;22.64
15709;BMP180;7954;51.914;8.420;2023-06-14T03:12:20;100381.72;;;22.63
15709;BMP180;7954;51.914;8.420;2023-06-14T03:14:48;100382.47;;;22.62
15709;BMP180;7954;51.914;8.420;2023-06-14T03:17:17;100385.59;;;22.59
15709;BMP180;7954;51.914;8.420;2023-06-14T03:19:46;100388.00;;;22.58
15709;BMP180;7954;51.914;8.420;2023-06-14T03:22:14;100382.88;;;22.51
15709;BMP180;7954;51.914;8.420;2023-06-14T03:24:44;100390.78;;;22.52
15709;BMP180;7954;51.914;8.420;2023-06-14T03:27:12;100396.47;;;22.50
15709;BMP180;7954;51.914;8.420;2023-06-14T03:29:40;100401.63;;;22.50
15709;BMP180;7954;51.914;8.420;2023-06-14T03:32:09;100394.81;;;22.50
15709;BMP180;7954;51.914;8.420;2023-06-14T03:34:36;100398.66;;;22.47
15709;BMP180;7954;51.914;8.420;2023-06-14T03:37:05;100399.22;;;22.44
15709;BMP180;7954;51.914;8.420;2023-06-14T03:39:33;100402.91;;;22.46
15709;BMP180;7954;51.914;8.420;2023-06-14T03:42:03;100396.84;;;22.46
15709;BMP180;7954;51.914;8.420;2023-06-14T03:44:31;100406.25;;;22.38
15709;BMP180;7954;51.914;8.420;2023-06-14T03:46:59;100410.44;;;22.38
15709;BMP180;7954;51.914;8.420;2023-06-14T03:49:28;100417.44;;;22.39
15709;BMP180;7954;51.914;8.420;2023-06-14T03:51:56;100416.16;;;22.42
15709;BMP180;7954;51.914;8.420;2023-06-14T03:54:23;100406.22;;;22.45
15709;BMP180;7954;51.914;8.420;2023-06-14T03:56:55;100411.53;;;22.47
15709;BMP180;7954;51.914;8.420;2023-06-14T03:59:26;100417.97;;;22.50
15709;BMP180;7954;51.914;8.420;2023-06-14T04:01:55;100417.41;;;22.53
15709;BMP180;7954;51.914;8.420;2023-06-14T04:04:23;100422.75;;;22.54
15709;BMP180;7954;51.914;8.420;2023-06-14T04:06:56;100435.06;;;22.57
15709;BMP180;7954;51.914;8.420;2023-06-14T04:09:24;100438.75;;;22.59
15709;BMP180;7954;51.914;8.420;2023-06-14T04:11:53;100438.56;;;22.57
15709;BMP180;7954;51.914;8.420;2023-06-14T04:14:21;100440.22;;;22.57
15709;BMP180;7954;51.914;8.420;2023-06-14T04:16:51;100449.78;;;22.58
15709;BMP180;7954;51.914;8.420;2023-06-14T04:19:19;100449.59;;;22.63
15709;BMP180;7954;51.914;8.420;2023-06-14T04:21:47;100460.25;;;22.66
15709;BMP180;7954;51.914;8.420;2023-06-14T04:24:14;100446.09;;;22.69
15709;BMP180;7954;51.914;8.420;2023-06-14T04:26:44;100457.13;;;22.68
15709;BMP180;7954;51.914;8.420;2023-06-14T04:29:15;100442.97;;;22.72
15709;BMP180;7954;51.914;8.420;2023-06-14T04:31:46;100454.19;;;22.79
15709;BMP180;7954;51.914;8.420;2023-06-14T04:34:16;100450.50;;;22.84
15709;BMP180;7954;51.914;8.420;2023-06-14T04:36:44;100453.25;;;22.86
15709;BMP180;7954;51.914;8.420;2023-06-14T04:39:15;100461.13;;;22.87
15709;BMP180;7954;51.914;8.420;2023-06-14T04:41:45;100460.97;;;22.93
15709;BMP180;7954;51.914;8.420;2023-06-14T04:44:13;100462.25;;;22.96
15709;BMP180;7954;51.914;8.420;2023-06-14T04:46:43;100468.91;;;23.01
15709;BMP180;7954;51.914;8.420;2023-06-14T04:49:13;100467.97;;;23.08
15709;BMP180;7954;51.914;8.420;2023-06-14T04:51:45;100470.69;;;23.16
15709;BMP180;7954;51.914;8.420;2023-06-14T04:54:13;100468.47;;;23.26
15709;BMP180;7954;51.914;8.420;2023-06-14T04:56:41;100474.69;;;23.28
15709;BMP180;7954;51.914;8.420;2023-06-14T04:59:10;100478.31;;;23.37
15709;BMP180;7954;51.914;8.420;2023-06-14T05:01:39;100468.91;;;23.44
15709;BMP180;7954;51.914;8.420;2023-06-14T05:04:07;100470.72;;;23.52
15709;BMP180;7954;51.914;8.420;2023-06-14T05:06:35;100469.22;;;23.54
15709;BMP180;7954;51.914;8.420;2023-06-14T05:09:04;100474.59;;;23.56
15709;BMP180;7954;51.914;8.420;2023-06-14T05:11:32;100466.47;;;23.60
15709;BMP180;7954;51.914;8.420;2023-06-14T05:14:00;100468.66;;;23.64
15709;BMP180;7954;51.914;8.420;2023-06-14T05:16:28;100484.13;;;23.64
15709;BMP180;7954;51.914;8.420;2023-06-14T05:18:56;100478.22;;;23.72
15709;BMP180;7954;51.914;8.420;2023-06-14T05:21:24;100482.59;;;23.80
15709;BMP180;7954;51.914;8.420;2023-06-14T05:23:52;100486.41;;;23.90
15709;BMP180;7954;51.914;8.420;2023-06-14T05:26:22;100478.81;;;23.92
15709;BMP180;7954;51.914;8.420;2023-06-14T05:28:55;100477.31;;;24.00
15709;BMP180;7954;51.914;8.420;2023-06-14T05:31:24;100488.16;;;24.05
15709;BMP180;7954;51.914;8.420;2023-06-14T05:33:53;100486.84;;;24.08
15709;BMP180;7954;51.914;8.420;2023-06-14T05:36:21;100484.44;;;24.10
15709;BMP180;7954;51.914;8.420;2023-06-14T05:38:50;100489.03;;;24.12
15709;BMP180;7954;51.914;8.420;2023-06-14T05:41:26;100489.50;;;24.24
15709;BMP180;7954;51.914;8.420;2023-06-14T05:43:55;100485.25;;;24.24
15709;BMP180;7954;51.914;8.420;2023-06-14T05:46:23;100483.00;;;24.27
15709;BMP180;7954;51.914;8.420;2023-06-14T05:48:52;100493.31;;;24.34
15709;BMP180;7954;51.914;8.420;2023-06-14T05:51:21;100492.69;;;24.44
15709;BMP180;7954;51.914;8.420;2023-06-14T05:53:52;100500.72;;;24.54
15709;BMP180;7954;51.914;8.420;2023-06-14T05:56:20;100497.94;;;24.59
15709;BMP180;7954;51.914;8.420;2023-06-14T05:58:50;100496.78;;;24.64
15709;BMP180;7954;51.914;8.420;2023-06-14T06:01:18;100503.22;;;24.67
15709;BMP180;7954;51.914;8.420;2023-06-14T06:03:46;100499.81;;;24.75
15709;BMP180;7954;51.914;8.420;2023-06-14T06:06:15;100498.13;;;24.76
15709;BMP180;7954;51.914;8.420;2023-06-14T06:08:43;100500.81;;;24.84
15709;BMP180;7954;51.914;8.420;2023-06-14T06:11:11;100499.19;;;24.85
15709;BMP180;7954;51.914;8.420;2023-06-14T06:13:39;100500.19;;;24.94
15709;BMP180;7954;51.914;8.420;2023-06-14T06:16:09;100501.38;;;25.04
15709;BMP180;7954;51.914;8.420;2023-06-14T06:18:37;100509.84;;;25.10
15709;BMP180;7954;51.914;8.420;2023-06-14T06:21:05;100502.25;;;25.12
15709;BMP180;7954;51.914;8.420;2023-06-14T06:23:33;100501.03;;;25.24
15709;BMP180;7954;51.914;8.420;2023-06-14T06:26:02;100506.34;;;25.25
15709;BMP180;7954;51.914;8.420;2023-06-14T06:28:30;100512.53;;;25.34
15709;BMP180;7954;51.914;8.420;2023-06-14T06:30:58;100510.44;;;25.38
15709;BMP180;7954;51.914;8.420;2023-06-14T06:33:31;100504.44;;;25.46
15709;BMP180;7954;51.914;8.420;2023-06-14T06:35:59;100515.03;;;25.41
15709;BMP180;7954;51.914;8.420;2023-06-14T06:38:27;100507.28;;;25.41
15709;BMP180;7954;51.914;8.420;2023-06-14T06:40:55;100502.28;;;25.42
15709;BMP180;7954;51.914;8.420;2023-06-14T06:43:23;100497.16;;;25.35
15709;BMP180;7954;51.914;8.420;2023-06-14T06:45:51;100499.00;;;25.36
15709;BMP180;7954;51.914;8.420;2023-06-14T06:48:19;100507.81;;;25.45
15709;BMP180;7954;51.914;8.420;2023-06-14T06:50:49;100509.59;;;25.46
15709;BMP180;7954;51.914;8.420;2023-06-14T06:53:17;100511.09;;;25.60
15709;BMP180;7954;51.914;8.420;2023-06-14T06:56:00;100509.31;;;25.74
15709;BMP180;7954;51.914;8.420;2023-06-14T06:58:28;100517.38;;;25.77
15709;BMP180;7954;51.914;8.420;2023-06-14T07:00:56;100511.19;;;25.84
15709;BMP180;7954;51.914;8.420;2023-06-14T07:03:24;100515.28;;;25.97
15709;BMP180;7954;51.914;8.420;2023-06-14T07:05:53;100521.13;;;26.03
15709;BMP180;7954;51.914;8.420;2023-06-14T07:08:21;100514.97;;;25.94
15709;BMP180;7954;51.914;8.420;2023-06-14T07:10:49;100509.13;;;25.88
15709;BMP180;7954;51.914;8.420;2023-06-14T07:13:18;100518.00;;;25.98
15709;BMP180;7954;51.914;8.420;2023-06-14T07:15:47;100508.06;;;26.10
15709;BMP180;7954;51.914;8.420;2023-06-14T07:18:15;100513.56;;;26.13
15709;BMP180;7954;51.914;8.420;2023-06-14T07:20:43;100516.66;;;26.17
15709;BMP180;7954;51.914;8.420;2023-06-14T07:23:13;100510.59;;;26.25
15709;BMP180;7954;51.914;8.420;2023-06-14T07:25:41;100521.38;;;26.37
15709;BMP180;7954;51.914;8.420;2023-06-14T07:28:09;100515.75;;;26.41
15709;BMP180;7954;51.914;8.420;2023-06-14T07:30:36;100517.75;;;26.43
15709;BMP180;7954;51.914;8.420;2023-06-14T07:33:04;100510.63;;;26.49
15709;BMP180;7954;51.914;8.420;2023-06-14T07:35:32;100518.41;;;26.49
15709;BMP180;7954;51.914;8.420;2023-06-14T07:38:01;100524.53;;;26.50
15709;BMP180;7954;51.914;8.420;2023-06-14T07:40:30;100523.31;;;26.55
15709;BMP180;7954;51.914;8.420;2023-06-14T07:42:58;100520.16;;;26.65
15709;BMP180;7954;51.914;8.420;2023-06-14T07:45:28;100519.75;;;26.69
15709;BMP180;7954;51.914;8.420;2023-06-14T07:47:55;100524.78;;;26.76
15709;BMP180;7954;51.914;8.420;2023-06-14T07:50:24;100532.25;;;26.73
15709;BMP180;7954;51.914;8.420;2023-06-14T07:52:52;100524.03;;;26.77
15709;BMP180;7954;51.914;8.420;2023-06-14T07:55:20;100535.81;;;26.82
15709;BMP180;7954;51.914;8.420;2023-06-14T07:57:50;100531.81;;;26.77
15709;BMP180;7954;51.914;8.420;2023-06-14T08:00:19;100533.50;;;26.77
15709;BMP180;7954;51.914;8.420;2023-06-14T08:02:47;100523.94;;;26.84
15709;BMP180;7954;51.914;8.420;2023-06-14T08:05:15;100538.75;;;26.94
15709;BMP180;7954;51.914;8.420;2023-06-14T08:07:43;100526.16;;;26.97
15709;BMP180;7954;51.914;8.420;2023-06-14T08:10:11;100530.13;;;27.10
15709;BMP180;7954;51.914;8.420;2023-06-14T08:12:39;100531.97;;;27.11
15709;BMP180;7954;51.914;8.420;2023-06-14T08:15:11;100530.47;;;27.13
15709;BMP180;7954;51.914;8.420;2023-06-14T08:17:41;100529.13;;;27.17
15709;BMP180;7954;51.914;8.420;2023-06-14T08:20:10;100525.47;;;27.23
15709;BMP180;7954;51.914;8.420;2023-06-14T08:22:38;100532.69;;;27.34
15709;BMP180;7954;51.914;8.420;2023-06-14T08:25:09;100534.06;;;27.39
15709;BMP180;7954;51.914;8.420;2023-06-14T08:27:37;100531.94;;;27.52
15709;BMP180;7954;51.914;8.420;2023-06-14T08:30:06;100528.16;;;27.65
15709;BMP180;7954;51.914;8.420;2023-06-14T08:32:36;100530.16;;;27.68
15709;BMP180;7954;51.914;8.420;2023-06-14T08:35:05;100526.81;;;27.69
15709;BMP180;7954;51.914;8.420;2023-06-14T08:37:38;100527.56;;;27.68
15709;BMP180;7954;51.914;8.420;2023-06-14T08:40:18;100535.03;;;27.65
15709;BMP180;7954;51.914;8.420;2023-06-14T08:42:50;100538.38;;;27.72
15709;BMP180;7954;51.914;8.420;2023-06-14T08:45:19;100533.81;;;27.78
15709;BMP180;7954;51.914;8.420;2023-06-14T08:47:53;100536.88;;;27.83
15709;BMP180;7954;51.914;8.420;2023-06-14T08:50:25;100541.75;;;27.88
15709;BMP180;7954;51.914;8.420;2023-06-14T08:52:58;100547.09;;;27.90
15709;BMP180;7954;51.914;8.420;2023-06-14T08:55:27;100548.34;;;27.93
15709;BMP180;7954;51.914;8.420;2023-06-14T08:57:59;100547.59;;;28.02
15709;BMP180;7954;51.914;8.420;2023-06-14T09:00:30;100538.75;;;28.17
15709;BMP180;7954;51.914;8.420;2023-06-14T09:03:01;100545.44;;;28.32
15709;BMP180;7954;51.914;8.420;2023-06-14T09:05:30;100540.22;;;28.49
15709;BMP180;7954;51.914;8.420;2023-06-14T09:07:58;100531.97;;;28.53
15709;BMP180;7954;51.914;8.420;2023-06-14T09:10:32;100543.00;;;28.42
15709;BMP180;7954;51.914;8.420;2023-06-14T09:13:03;100537.78;;;28.42
15709;BMP180;7954;51.914;8.420;2023-06-14T09:15:31;100547.56;;;28.53
15709;BMP180;7954;51.914;8.420;2023-06-14T09:18:02;100537.28;;;28.63
15709;BMP180;7954;51.914;8.420;2023-06-14T09:20:30;100535.44;;;28.62
15709;BMP180;7954;51.914;8.420;2023-06-14T09:23:00;100539.25;;;28.65
15709;BMP180;7954;51.914;8.420;2023-06-14T09:25:28;100540.47;;;28.77
15709;BMP180;7954;51.914;8.420;2023-06-14T09:28:06;100542.63;;;28.81
15709;BMP180;7954;51.914;8.420;2023-06-14T09:30:35;100542.44;;;28.80
15709;BMP180;7954;51.914;8.420;2023-06-14T09:33:05;100547.97;;;28.83
15709;BMP180;7954;51.914;8.420;2023-06-14T09:35:35;100545.66;;;28.86
15709;BMP180;7954;51.914;8.420;2023-06-14T09:38:03;100540.75;;;28.89
15709;BMP180;7954;51.914;8.420;2023-06-14T09:40:34;100551.06;;;29.06
15709;BMP180;7954;51.914;8.420;2023-06-14T09:43:05;100541.06;;;29.19
15709;BMP180;7954;51.914;8.420;2023-06-14T09:45:35;100542.31;;;29.14
15709;BMP180;7954;51.914;8.420;2023-06-14T09:48:06;100538.38;;;29.09
15709;BMP180;7954;51.914;8.420;2023-06-14T09:50:34;100547.31;;;29.21
15709;BMP180;7954;51.914;8.420;2023-06-14T09:53:05;100545.16;;;29.25
15709;BMP180;7954;51.914;8.420;2023-06-14T09:55:34;100542.06;;;29.29
15709;BMP180;7954;51.914;8.420;2023-06-14T09:58:04;100539.47;;;29.37
15709;BMP180;7954;51.914;8.420;2023-06-14T10:00:34;100544.66;;;29.37
15709;BMP180;7954;51.914;8.420;2023-06-14T10:03:10;100534.25;;;29.37
15709;BMP180;7954;51.914;8.420;2023-06-14T10:05:40;100542.03;;;29.46
15709;BMP180;7954;51.914;8.420;2023-06-14T10:08:10;100536.28;;;29.58
15709;BMP180;7954;51.914;8.420;2023-06-14T10:10:42;100524.09;;;29.67
15709;BMP180;7954;51.914;8.420;2023-06-14T10:13:11;100531.78;;;29.66
15709;BMP180;7954;51.914;8.420;2023-06-14T10:15:44;100534.22;;;29.64
15709;BMP180;7954;51.914;8.420;2023-06-14T10:18:19;100525.94;;;29.68
15709;BMP180;7954;51.914;8.420;2023-06-14T10:20:58;100526.84;;;29.87
15709;BMP180;7954;51.914;8.420;2023-06-14T10:23:33;100524.91;;;30.03
15709;BMP180;7954;51.914;8.420;2023-06-14T10:26:03;100518.19;;;30.15
15709;BMP180;7954;51.914;8.420;2023-06-14T10:28:32;100521.16;;;30.28
15709;BMP180;7954;51.914;8.420;2023-06-14T10:31:07;100525.78;;;30.40
15709;BMP180;7954;51.914;8.420;2023-06-14T10:33:49;100519.94;;;30.43
15709;BMP180;7954;51.914;8.420;2023-06-14T10:36:26;100520.97;;;30.45
15709;BMP180;7954;51.914;8.420;2023-06-14T10:38:57;100522.03;;;30.47
15709;BMP180;7954;51.914;8.420;2023-06-14T10:41:27;100525.91;;;30.42
15709;BMP180;7954;51.914;8.420;2023-06-14T10:44:31;100524.28;;;30.34
15709;BMP180;7954;51.914;8.420;2023-06-14T10:47:00;100521.03;;;30.55
15709;BMP180;7954;51.914;8.420;2023-06-14T10:49:39;100520.34;;;30.85
15709;BMP180;7954;51.914;8.420;2023-06-14T10:52:13;100517.63;;;30.84
15709;BMP180;7954;51.914;8.420;2023-06-14T10:55:02;100511.06;;;31.07
15709;BMP180;7954;51.914;8.420;2023-06-14T10:57:39;100525.13;;;31.09
15709;BMP180;7954;51.914;8.420;2023-06-14T11:00:11;100509.13;;;31.34
15709;BMP180;7954;51.914;8.420;2023-06-14T11:02:52;100503.16;;;31.55
15709;BMP180;7954;51.914;8.420;2023-06-14T11:05:26;100500.63;;;31.47
15709;BMP180;7954;51.914;8.420;2023-06-14T11:08:09;100504.44;;;31.30
15709;BMP180;7954;51.914;8.420;2023-06-14T11:10:43;100504.31;;;31.49
15709;BMP180;7954;51.914;8.420;2023-06-14T11:13:12;100494.16;;;31.52
15709;BMP180;7954;51.914;8.420;2023-06-14T11:15:44;100505.38;;;31.61
15709;BMP180;7954;51.914;8.420;2023-06-14T11:18:14;100514.09;;;31.71
15709;BMP180;7954;51.914;8.420;2023-06-14T11:20:46;100495.50;;;31.98
15709;BMP180;7954;51.914;8.420;2023-06-14T11:23:14;100497.47;;;32.00
15709;BMP180;7954;51.914;8.420;2023-06-14T11:25:42;100506.03;;;32.29
15709;BMP180;7954;51.914;8.420;2023-06-14T11:28:10;100491.91;;;32.37
15709;BMP180;7954;51.914;8.420;2023-06-14T11:30:38;100489.94;;;32.35
15709;BMP180;7954;51.914;8.420;2023-06-14T11:33:09;100482.00;;;32.23
15709;BMP180;7954;51.914;8.420;2023-06-14T11:35:38;100484.13;;;32.17
15709;BMP180;7954;51.914;8.420;2023-06-14T11:38:07;100475.16;;;32.35
15709;BMP180;7954;51.914;8.420;2023-06-14T11:40:38;100482.91;;;32.65
15709;BMP180;7954;51.914;8.420;2023-06-14T11:43:06;100476.69;;;32.74
15709;BMP180;7954;51.914;8.420;2023-06-14T11:45:34;100474.69;;;32.82
15709;BMP180;7954;51.914;8.420;2023-06-14T11:48:03;100481.78;;;32.73
15709;BMP180;7954;51.914;8.420;2023-06-14T11:50:31;100470.66;;;32.54
15709;BMP180;7954;51.914;8.420;2023-06-14T11:53:00;100475.50;;;32.50
15709;BMP180;7954;51.914;8.420;2023-06-14T11:55:37;100475.50;;;32.50
15709;BMP180;7954;51.914;8.420;2023-06-14T11:58:06;100472.19;;;32.62
15709;BMP180;7954;51.914;8.420;2023-06-14T12:00:35;100475.44;;;32.69
15709;BMP180;7954;51.914;8.420;2023-06-14T12:03:03;100477.59;;;32.75
15709;BMP180;7954;51.914;8.420;2023-06-14T12:05:33;100477.31;;;32.82
15709;BMP180;7954;51.914;8.420;2023-06-14T12:08:03;100473.03;;;32.94
15709;BMP180;7954;51.914;8.420;2023-06-14T12:10:40;100469.34;;;33.34
15709;BMP180;7954;51.914;8.420;2023-06-14T12:13:10;100470.81;;;33.52
15709;BMP180;7954;51.914;8.420;2023-06-14T12:15:38;100473.09;;;33.71
15709;BMP180;7954;51.914;8.420;2023-06-14T12:18:06;100467.84;;;33.71
15709;BMP180;7954;51.914;8.420;2023-06-14T12:20:35;100467.63;;;33.68
15709;BMP180;7954;51.914;8.420;2023-06-14T12:23:04;100471.53;;;33.84
15709;BMP180;7954;51.914;8.420;2023-06-14T12:25:34;100464.69;;;33.97
15709;BMP180;7954;51.914;8.420;2023-06-14T12:28:06;100457.66;;;34.31
15709;BMP180;7954;51.914;8.420;2023-06-14T12:30:36;100449.00;;;34.32
15709;BMP180;7954;51.914;8.420;2023-06-14T12:33:05;100457.78;;;34.21
15709;BMP180;7954;51.914;8.420;2023-06-14T12:35:34;100459.47;;;34.09
15709;BMP180;7954;51.914;8.420;2023-06-14T12:38:02;100463.59;;;34.28
15709;BMP180;7954;51.914;8.420;2023-06-14T12:40:30;100472.03;;;34.36
15709;BMP180;7954;51.914;8.420;2023-06-14T12:42:59;100465.38;;;34.63
15709;BMP180;7954;51.914;8.420;2023-06-14T12:45:28;100466.28;;;34.53
15709;BMP180;7954;51.914;8.420;2023-06-14T12:47:56;100509.66;;;36.68
15709;BMP180;7954;51.914;8.420;2023-06-14T12:50:24;100499.13;;;38.64
15709;BMP180;7954;51.914;8.420;2023-06-14T12:52:53;100495.72;;;40.42
15709;BMP180;7954;51.914;8.420;2023-06-14T12:55:20;100483.88;;;42.01
15709;BMP180;7954;51.914;8.420;2023-06-14T12:57:48;100445.84;;;42.02
15709;BMP180;7954;51.914;8.420;2023-06-14T13:00:18;100485.53;;;43.02
15709;BMP180;7954;51.914;8.420;2023-06-14T13:02:49;100416.28;;;43.24
15709;BMP180;7954;51.914;8.420;2023-06-14T13:05:18;100473.78;;;43.42
15709;BMP180;7954;51.914;8.420;2023-06-14T13:07:46;100438.19;;;42.52
15709;BMP180;7954;51.914;8.420;2023-06-14T13:10:14;100425.22;;;41.18
15709;BMP180;7954;51.914;8.420;2023-06-14T13:12:45;100506.03;;;41.62
15709;BMP180;7954;51.914;8.420;2023-06-14T13:15:13;100496.03;;;43.91
15709;BMP180;7954;51.914;8.420;2023-06-14T13:17:41;100422.38;;;42.76
15709;BMP180;7954;51.914;8.420;2023-06-14T13:20:11;100435.75;;;41.17
15709;BMP180;7954;51.914;8.420;2023-06-14T13:22:41;100452.66;;;40.29
15709;BMP180;7954;51.914;8.420;2023-06-14T13:25:09;100517.69;;;43.08
15709;BMP180;7954;51.914;8.420;2023-06-14T13:27:37;100503.69;;;45.40
15709;BMP180;7954;51.914;8.420;2023-06-14T13:30:08;100505.69;;;46.10
15709;BMP180;7954;51.914;8.420;2023-06-14T13:32:37;100497.66;;;47.16
15709;BMP180;7954;51.914;8.420;2023-06-14T13:35:05;100500.59;;;48.13
15709;BMP180;7954;51.914;8.420;2023-06-14T13:37:34;100502.72;;;49.49
15709;BMP180;7954;51.914;8.420;2023-06-14T13:40:03;100420.41;;;48.88
15709;BMP180;7954;51.914;8.420;2023-06-14T13:42:31;100430.28;;;46.23
15709;BMP180;7954;51.914;8.420;2023-06-14T13:44:59;100481.03;;;46.55
15709;BMP180;7954;51.914;8.420;2023-06-14T13:47:27;100492.25;;;46.76
15709;BMP180;7954;51.914;8.420;2023-06-14T13:49:54;100493.72;;;45.64
15709;BMP180;7954;51.914;8.420;2023-06-14T13:52:22;100507.22;;;47.86
15709;BMP180;7954;51.914;8.420;2023-06-14T13:54:52;100503.53;;;49.42
15709;BMP180;7954;51.914;8.420;2023-06-14T13:57:20;100509.88;;;50.29
15709;BMP180;7954;51.914;8.420;2023-06-14T13:59:48;100433.09;;;49.00
15709;BMP180;7954;51.914;8.420;2023-06-14T14:02:16;100432.66;;;47.24
15709;BMP180;7954;51.914;8.420;2023-06-14T14:04:45;100449.97;;;45.62
15709;BMP180;7954;51.914;8.420;2023-06-14T14:07:17;100445.50;;;43.94
15709;BMP180;7954;51.914;8.420;2023-06-14T14:09:47;100465.63;;;42.71
15709;BMP180;7954;51.914;8.420;2023-06-14T14:12:16;100456.53;;;44.56
15709;BMP180;7954;51.914;8.420;2023-06-14T14:14:44;100443.94;;;44.79
15709;BMP180;7954;51.914;8.420;2023-06-14T14:17:12;100450.53;;;44.64
15709;BMP180;7954;51.914;8.420;2023-06-14T14:19:40;100449.38;;;43.54
15709;BMP180;7954;51.914;8.420;2023-06-14T14:22:08;100444.69;;;42.80